Temp: 6.7°C   Baro: 992.8mb
  Wind: 6.0mph   Dir: WSW (258°)
  Rain: 0.2mm (0.0mm/hr)
  Solar: 318W/m2  Hum: 82%
 
Bath Spa Weather Station Historical Data
Daily Summary for June 19, 2019 Units:  English    Metric   Both
Daily Weekly Monthly Yearly Custom
  High: Low: Average:
Temperature: 43.9 °F 39.9 °F 41.9 °F
Dew Point: 41.9 °F 37.2 °F 40.2 °F
Humidity: 95% 90% 94%
Wind Speed: 7mph 0.2mph 3.1mph
Wind Gust: 17mph - -
Wind- - SE
Pressure: 29.85 in 29.70 in -
Precipitation: 0.17 in    
Historical Graphs
 
 
Tabular Data for June 19, 2019
Time Temperature Dew Point Pressure Wind Wind Speed Wind Gust Humidity Rainfall Rate (Hourly) solar
00:04 39.9 °F 37.2 °F 29.79 in SE 4.9 mph 11 mph 90% 0.00 in 0 W/m2
00:09 39.9 °F 37.2 °F 29.78 in SE 5.4 mph 11 mph 90% 0.00 in 0 W/m2
00:14 39.9 °F 37.2 °F 29.78 in SE 4.1 mph 10 mph 90% 0.00 in 0 W/m2
00:19 39.9 °F 37.2 °F 29.78 in SSE 4.8 mph 9 mph 90% 0.00 in 0 W/m2
00:24 39.9 °F 37.5 °F 29.78 in SSE 5.7 mph 10 mph 90.8% 0.00 in 0 W/m2
00:29 40 °F 37.7 °F 29.78 in SSE 5.1 mph 11 mph 91% 0.00 in 0 W/m2
00:34 40 °F 37.7 °F 29.78 in SSE 6.7 mph 12 mph 91% 0.00 in 0 W/m2
00:39 40.1 °F 37.8 °F 29.78 in SSE 5.8 mph 12 mph 91% 0.00 in 0 W/m2
00:44 40.1 °F 37.8 °F 29.77 in SSE 6.2 mph 12 mph 91% 0.00 in 0 W/m2
00:49 40.1 °F 37.8 °F 29.77 in SSE 3.9 mph 12 mph 91% 0.00 in 0 W/m2
00:54 40.1 °F 37.8 °F 29.77 in SSE 5.1 mph 11 mph 91% 0.00 in 0 W/m2
00:59 40.1 °F 37.8 °F 29.77 in SSE 4.8 mph 10 mph 91% 0.00 in 0 W/m2
01:04 40.2 °F 37.9 °F 29.77 in SSE 6.8 mph 12 mph 91.6% 0.00 in 0 W/m2
01:09 40.3 °F 38.1 °F 29.77 in SSE 3.6 mph 10 mph 92% 0.00 in 0 W/m2
01:14 40.3 °F 38.1 °F 29.77 in SSE 4.2 mph 10 mph 92% 0.00 in 0 W/m2
01:19 40.4 °F 38.2 °F 29.76 in SSE 4 mph 10 mph 92% 0.00 in 0 W/m2
01:24 40.5 °F 38.3 °F 29.76 in SSE 3.6 mph 9 mph 92% 0.00 in 0 W/m2
01:29 40.5 °F 38.3 °F 29.76 in SSE 5.9 mph 10 mph 92% 0.00 in 0 W/m2
01:34 40.5 °F 38.3 °F 29.76 in SSE 5.2 mph 11 mph 92% 0.00 in 0 W/m2
01:39 40.6 °F 38.4 °F 29.76 in SSE 4.1 mph 11 mph 92% 0.00 in 0 W/m2
01:44 40.6 °F 38.5 °F 29.76 in SSE 5.2 mph 11 mph 92% 0.00 in 0 W/m2
01:49 40.6 °F 38.5 °F 29.76 in SSE 5.1 mph 12 mph 92% 0.00 in 0 W/m2
01:54 40.6 °F 38.5 °F 29.76 in SSE 6.6 mph 10 mph 92% 0.00 in 0 W/m2
01:59 40.6 °F 38.5 °F 29.76 in SE 5.1 mph 11 mph 92% 0.00 in 0 W/m2
02:04 40.8 °F 38.7 °F 29.76 in SSE 7 mph 17 mph 92% 0.00 in 0 W/m2
02:09 40.8 °F 38.7 °F 29.75 in SSE 6 mph 13 mph 92% 0.00 in 0 W/m2
02:14 40.8 °F 38.7 °F 29.75 in SSE 4.3 mph 10 mph 92% 0.00 in 0 W/m2
02:19 40.8 °F 38.7 °F 29.75 in SSE 4.7 mph 10 mph 92% 0.00 in 0 W/m2
02:24 40.9 °F 38.8 °F 29.75 in SE 3.6 mph 10 mph 92% 0.00 in 0 W/m2
02:29 41 °F 38.8 °F 29.75 in SE 3.6 mph 8 mph 92% 0.00 in 0 W/m2
02:34 41 °F 38.8 °F 29.75 in SE 6.1 mph 12 mph 92.1% 0.00 in 0 W/m2
02:39 41 °F 39.2 °F 29.75 in SSE 5.2 mph 11 mph 93% 0.00 in 0 W/m2
02:44 41 °F 39.2 °F 29.75 in SSE 5.1 mph 12 mph 93% 0.00 in 0 W/m2
02:49 41.1 °F 39.3 °F 29.75 in SE 4.7 mph 10 mph 93% 0.00 in 0 W/m2
02:54 41.2 °F 39.4 °F 29.75 in SSE 6.4 mph 13 mph 93% 0.00 in 0 W/m2
02:59 41.2 °F 39.4 °F 29.75 in SSE 4.4 mph 13 mph 93% 0.00 in 0 W/m2
03:04 41.3 °F 39.5 °F 29.75 in SSE 5.6 mph 11 mph 93% 0.00 in 0 W/m2
03:09 41.4 °F 39.6 °F 29.75 in SSE 3.9 mph 11 mph 93% 0.00 in 0 W/m2
03:14 41.4 °F 39.5 °F 29.74 in SSE 4.1 mph 8 mph 92.8% 0.00 in 0 W/m2
03:19 41.4 °F 39.2 °F 29.74 in SSE 2.7 mph 8 mph 92% 0.00 in 0 W/m2
03:24 41.4 °F 39.2 °F 29.74 in SSE 5 mph 11 mph 92% 0.00 in 0 W/m2
03:29 41.4 °F 39.2 °F 29.74 in SSE 4.1 mph 11 mph 92% 0.01 in 0 W/m2
03:34 41.4 °F 39.2 °F 29.74 in SSE 3.6 mph 11 mph 92% 0.01 in 0 W/m2
03:39 41.4 °F 39.5 °F 29.74 in SSE 4.8 mph 10 mph 92.8% 0.02 in 0 W/m2
03:44 41.4 °F 39.6 °F 29.74 in SSE 3.6 mph 8 mph 93% 0.04 in 0 W/m2
03:49 41.3 °F 39.5 °F 29.74 in SE 3 mph 7 mph 93% 0.04 in 0 W/m2
03:54 41.2 °F 39.4 °F 29.74 in SE 4.7 mph 8 mph 93% 0.06 in 0 W/m2
03:59 41.2 °F 39.4 °F 29.74 in SE 3.8 mph 9 mph 93% 0.06 in 0 W/m2
04:04 41.2 °F 39.4 °F 29.73 in SE 3.4 mph 9 mph 93% 0.06 in 0 W/m2
04:09 41.2 °F 39.4 °F 29.73 in SE 3.9 mph 9 mph 93% 0.06 in 0 W/m2
04:14 41.2 °F 39.4 °F 29.73 in SE 2.5 mph 7 mph 93% 0.06 in 0 W/m2
04:19 41.2 °F 39.4 °F 29.73 in SE 1.7 mph 5 mph 93% 0.06 in 0 W/m2
04:24 41.1 °F 39.3 °F 29.73 in SE 2.3 mph 6 mph 93% 0.07 in 0 W/m2
04:29 41 °F 39.2 °F 29.73 in SE 4 mph 8 mph 93% 0.07 in 0 W/m2
04:34 41.1 °F 39.3 °F 29.72 in SE 2.4 mph 8 mph 93% 0.06 in 0 W/m2
04:39 41 °F 39.2 °F 29.72 in SE 3.5 mph 9 mph 93% 0.06 in 0 W/m2
04:44 41 °F 39.4 °F 29.72 in SE 3.3 mph 8 mph 94% 0.04 in 0 W/m2
04:49 41 °F 39.4 °F 29.72 in ESE 4.3 mph 9 mph 94% 0.03 in 0 W/m2
04:54 41 °F 39.4 °F 29.72 in SE 2.9 mph 9 mph 94% 0.03 in 0 W/m2
04:59 41 °F 39.4 °F 29.72 in SE 2.5 mph 8 mph 94% 0.02 in 0 W/m2
05:04 41 °F 39.4 °F 29.72 in ESE 5.2 mph 14 mph 94% 0.02 in 0 W/m2
05:09 40.9 °F 39.3 °F 29.72 in SSE 3.9 mph 14 mph 94% 0.02 in 0 W/m2
05:14 40.8 °F 39.2 °F 29.71 in SE 5.2 mph 10 mph 94% 0.02 in 0 W/m2
05:19 40.8 °F 39.2 °F 29.71 in SSE 5.9 mph 13 mph 94% 0.02 in 0 W/m2
05:24 40.8 °F 39.2 °F 29.71 in SSE 4.8 mph 13 mph 94% 0.01 in 0 W/m2
05:29 40.8 °F 39.2 °F 29.71 in SE 4.2 mph 11 mph 94% 0.02 in 0 W/m2
05:34 40.8 °F 39.2 °F 29.71 in SE 4.2 mph 10 mph 94% 0.02 in 0 W/m2
05:39 40.8 °F 39.2 °F 29.71 in SSE 3.3 mph 8 mph 94% 0.02 in 0 W/m2
05:44 40.8 °F 39.2 °F 29.71 in SE 5.8 mph 10 mph 94% 0.02 in 0 W/m2
05:49 40.8 °F 39.2 °F 29.71 in SE 4 mph 10 mph 94% 0.02 in 0 W/m2
05:54 40.8 °F 39.2 °F 29.71 in SE 3.7 mph 7 mph 94% 0.02 in 0 W/m2
05:59 40.8 °F 39.2 °F 29.71 in SE 5.2 mph 12 mph 94% 0.02 in 0 W/m2
06:04 40.8 °F 39.2 °F 29.71 in SE 3.9 mph 9 mph 94% 0.02 in 0 W/m2
06:09 40.8 °F 39.2 °F 29.71 in SE 4.3 mph 9 mph 94% 0.02 in 0 W/m2
06:14 40.8 °F 39.2 °F 29.71 in SE 4.6 mph 10 mph 94% 0.02 in 0 W/m2
06:19 40.8 °F 39.2 °F 29.71 in SE 3.5 mph 10 mph 94% 0.03 in 0 W/m2
06:24 40.8 °F 39.2 °F 29.71 in SE 2.4 mph 7 mph 94% 0.04 in 0 W/m2
06:29 40.8 °F 39.2 °F 29.71 in ESE 4.4 mph 8 mph 94% 0.04 in 0 W/m2
06:34 40.8 °F 39.2 °F 29.71 in SE 2.7 mph 8 mph 94% 0.03 in 0 W/m2
06:39 40.8 °F 39.2 °F 29.71 in ESE 2.6 mph 6 mph 94% 0.03 in 0 W/m2
06:44 40.8 °F 39.2 °F 29.71 in SE 2.9 mph 6 mph 94% 0.04 in 0 W/m2
06:49 40.8 °F 39.2 °F 29.70 in SE 3 mph 7 mph 94% 0.04 in 0 W/m2
06:54 40.8 °F 39.3 °F 29.71 in ESE 3.1 mph 7 mph 94% 0.04 in 0 W/m2
06:59 40.8 °F 39.2 °F 29.71 in SE 1.8 mph 7 mph 94% 0.04 in 0 W/m2
07:04 40.9 °F 39.3 °F 29.71 in SE 3.7 mph 8 mph 94% 0.04 in 0 W/m2
07:09 40.9 °F 39.5 °F 29.71 in SE 3.1 mph 8 mph 94.4% 0.04 in 0 W/m2
07:14 40.9 °F 39.7 °F 29.71 in SE 2.4 mph 6 mph 95% 0.03 in 0 W/m2
07:19 41 °F 39.7 °F 29.71 in ESE 4.3 mph 8 mph 95% 0.03 in 0 W/m2
07:24 41 °F 39.7 °F 29.71 in SE 3 mph 8 mph 95% 0.02 in 0 W/m2
07:29 41 °F 39.7 °F 29.71 in ESE 3.8 mph 8 mph 95% 0.02 in 0 W/m2
07:34 41 °F 39.7 °F 29.70 in SE 2.4 mph 8 mph 95% 0.02 in 0 W/m2
07:39 41 °F 39.7 °F 29.70 in SE 3 mph 8 mph 95% 0.03 in 0 W/m2
07:44 41 °F 39.7 °F 29.70 in SE 2.4 mph 5 mph 95% 0.03 in 0 W/m2
07:49 41 °F 39.7 °F 29.70 in ESE 3.7 mph 8 mph 95% 0.02 in 0 W/m2
07:54 41 °F 39.7 °F 29.71 in ESE 3 mph 8 mph 95% 0.02 in 0 W/m2
07:59 41 °F 39.7 °F 29.71 in SE 1.9 mph 7 mph 95% 0.02 in 0 W/m2
08:04 41.1 °F 39.8 °F 29.71 in ESE 4 mph 8 mph 95% 0.02 in 0 W/m2
08:09 41.2 °F 39.9 °F 29.71 in ESE 3 mph 8 mph 95% 0.02 in 0 W/m2
08:14 41.2 °F 39.9 °F 29.71 in ESE 2.3 mph 8 mph 95% 0.01 in 0 W/m2
08:19 41.2 °F 39.9 °F 29.71 in ESE 3.1 mph 7 mph 95% 0.01 in 0 W/m2
08:24 41.2 °F 39.9 °F 29.71 in ESE 1.4 mph 5 mph 95% 0.01 in 5 W/m2
08:29 41.2 °F 39.9 °F 29.71 in East 1.8 mph 7 mph 95% 0.01 in 9 W/m2
08:34 41.2 °F 39.9 °F 29.71 in SE 1.7 mph 4 mph 95% 0.01 in 14 W/m2
08:39 41.2 °F 39.9 °F 29.71 in SE 1.1 mph 4 mph 95% 0.01 in 18 W/m2
08:44 41.3 °F 40 °F 29.71 in SE 1.3 mph 5 mph 95% 0.00 in 23 W/m2
08:49 41.4 °F 40.1 °F 29.72 in ESE 2.6 mph 7 mph 95% 0.00 in 26 W/m2
08:54 41.4 °F 40.2 °F 29.72 in ESE 2.2 mph 5 mph 95% 0.00 in 30 W/m2
08:59 41.4 °F 40.2 °F 29.72 in ESE 4.4 mph 8 mph 95% 0.01 in 32 W/m2
09:04 41.5 °F 40.2 °F 29.72 in ESE 1.7 mph 8 mph 95% 0.01 in 37 W/m2
09:09 41.5 °F 40.3 °F 29.72 in SE 1.3 mph 4 mph 95% 0.01 in 39 W/m2
09:14 41.7 °F 40.4 °F 29.72 in ESE 3.6 mph 7 mph 95% 0.01 in 44 W/m2
09:19 42.3 °F 41 °F 29.72 in SE 2.9 mph 7 mph 95% 0.01 in 46 W/m2
09:24 42.3 °F 41.1 °F 29.72 in ESE 3.8 mph 8 mph 95% 0.01 in 46 W/m2
09:29 42 °F 40.7 °F 29.72 in ESE 3 mph 8 mph 95% 0.01 in 42 W/m2
09:34 41.9 °F 40.6 °F 29.72 in SE 3.4 mph 8 mph 95% 0.01 in 35 W/m2
09:39 41.8 °F 40.6 °F 29.72 in SE 2.5 mph 8 mph 95% 0.01 in 35 W/m2
09:44 41.8 °F 40.6 °F 29.72 in SSE 4.5 mph 9 mph 95% 0.01 in 35 W/m2
09:49 41.8 °F 40.5 °F 29.72 in SE 2.1 mph 7 mph 95% 0.01 in 33 W/m2
09:54 41.8 °F 40.5 °F 29.72 in SE 4.6 mph 8 mph 95% 0.01 in 42 W/m2
09:59 41.8 °F 40.5 °F 29.72 in SE 4.2 mph 10 mph 95% 0.00 in 53 W/m2
10:04 41.8 °F 40.5 °F 29.72 in SE 5.5 mph 11 mph 95% 0.00 in 56 W/m2
10:09 41.9 °F 40.6 °F 29.73 in SSE 5.5 mph 12 mph 95% 0.00 in 62 W/m2
10:14 41.9 °F 40.6 °F 29.73 in SE 7 mph 13 mph 95% 0.00 in 63 W/m2
10:19 41.9 °F 40.6 °F 29.73 in SSE 4.9 mph 13 mph 94.9% 0.00 in 72 W/m2
10:24 41.9 °F 40.3 °F 29.73 in SSE 5 mph 11 mph 94% 0.00 in 69 W/m2
10:29 41.9 °F 40.4 °F 29.73 in SSE 4.9 mph 12 mph 94.3% 0.00 in 86 W/m2
10:34 41.9 °F 40.4 °F 29.73 in SSE 5.3 mph 10 mph 94.3% 0.00 in 86 W/m2
10:39 41.9 °F 40.5 °F 29.73 in SE 5.2 mph 10 mph 94.7% 0.00 in 84 W/m2
10:44 42.1 °F 40.8 °F 29.73 in SSE 5.6 mph 11 mph 95% 0.00 in 67 W/m2
10:49 42.1 °F 40.8 °F 29.73 in SSE 4.3 mph 10 mph 95% 0.00 in 62 W/m2
10:54 42.2 °F 40.9 °F 29.73 in SSE 3.1 mph 7 mph 95% 0.00 in 65 W/m2
10:59 42.3 °F 41 °F 29.73 in SE 4.3 mph 11 mph 95% 0.00 in 58 W/m2
11:04 42.3 °F 41 °F 29.73 in SSE 2.6 mph 7 mph 95% 0.00 in 58 W/m2
11:09 42.3 °F 40.9 °F 29.73 in SE 3.2 mph 8 mph 94.6% 0.00 in 58 W/m2
11:14 42.4 °F 40.7 °F 29.73 in SE 3.9 mph 8 mph 94% 0.00 in 65 W/m2
11:19 42.4 °F 40.8 °F 29.72 in SSE 2.7 mph 8 mph 94% 0.00 in 67 W/m2
11:24 42.4 °F 40.8 °F 29.72 in SE 3.3 mph 7 mph 94% 0.00 in 58 W/m2
11:29 42.5 °F 40.9 °F 29.73 in SE 1.8 mph 6 mph 94% 0.00 in 58 W/m2
11:34 42.6 °F 41 °F 29.73 in SE 3.8 mph 8 mph 94% 0.00 in 67 W/m2
11:39 42.6 °F 41 °F 29.72 in SE 2.4 mph 7 mph 94% 0.00 in 77 W/m2
11:44 42.8 °F 41.2 °F 29.72 in SE 2.5 mph 5 mph 94% 0.00 in 86 W/m2
11:49 42.8 °F 41.2 °F 29.72 in SSE 2.5 mph 7 mph 94% 0.00 in 90 W/m2
11:54 43 °F 41.4 °F 29.72 in ESE 3.5 mph 7 mph 94% 0.00 in 91 W/m2
11:59 43 °F 41.4 °F 29.72 in SE 3.4 mph 9 mph 94% 0.00 in 88 W/m2
12:04 43.1 °F 41.4 °F 29.72 in SE 3.7 mph 9 mph 94% 0.00 in 102 W/m2
12:09 43.2 °F 41.5 °F 29.72 in SE 3.6 mph 8 mph 94% 0.00 in 98 W/m2
12:14 43.2 °F 41.5 °F 29.72 in SSE 3.2 mph 7 mph 94% 0.00 in 91 W/m2
12:19 43.2 °F 41.5 °F 29.72 in SSE 2.3 mph 7 mph 94% 0.00 in 79 W/m2
12:24 43.2 °F 41.5 °F 29.72 in SE 3.7 mph 8 mph 94% 0.00 in 81 W/m2
12:29 43.2 °F 41.5 °F 29.72 in SE 4.1 mph 9 mph 94% 0.00 in 56 W/m2
12:34 43.1 °F 41.5 °F 29.72 in SSE 6 mph 10 mph 94% 0.00 in 56 W/m2
12:39 43 °F 41.4 °F 29.72 in SSE 4.5 mph 9 mph 94% 0.00 in 67 W/m2
12:44 43 °F 41.4 °F 29.72 in SE 5.4 mph 10 mph 94% 0.00 in 77 W/m2
12:49 43 °F 41.4 °F 29.72 in SE 3.3 mph 10 mph 94% 0.00 in 70 W/m2
12:54 43.1 °F 41.4 °F 29.72 in SSE 4.7 mph 10 mph 94% 0.00 in 67 W/m2
12:59 43.1 °F 41.5 °F 29.71 in SSE 3.4 mph 7 mph 94% 0.00 in 65 W/m2
13:04 43.2 °F 41.5 °F 29.71 in SSE 2.9 mph 7 mph 94% 0.00 in 79 W/m2
13:09 43.2 °F 41.4 °F 29.71 in SSE 5.1 mph 8 mph 93.5% 0.00 in 79 W/m2
13:14 43.2 °F 41.4 °F 29.71 in SE 2.8 mph 9 mph 93% 0.00 in 86 W/m2
13:19 43.2 °F 41.4 °F 29.71 in SE 3.3 mph 9 mph 93% 0.00 in 83 W/m2
13:24 43.2 °F 41.4 °F 29.71 in SE 4.5 mph 10 mph 93% 0.00 in 81 W/m2
13:29 43.2 °F 41.4 °F 29.71 in SE 3.4 mph 10 mph 93% 0.00 in 65 W/m2
13:34 43.2 °F 41.4 °F 29.71 in SE 3.9 mph 10 mph 93% 0.00 in 62 W/m2
13:39 43.2 °F 41.4 °F 29.71 in SSE 3.5 mph 10 mph 93% 0.00 in 51 W/m2
13:44 43.2 °F 41.4 °F 29.71 in SE 1.4 mph 6 mph 93% 0.00 in 69 W/m2
13:49 43.3 °F 41.5 °F 29.71 in SE 2 mph 4 mph 93% 0.00 in 70 W/m2
13:54 43.5 °F 41.7 °F 29.71 in SE 2.3 mph 5 mph 93% 0.00 in 70 W/m2
13:59 43.5 °F 41.7 °F 29.71 in SE 2.7 mph 7 mph 93% 0.00 in 69 W/m2
14:04 43.5 °F 41.7 °F 29.71 in ESE 1.8 mph 6 mph 93% 0.00 in 67 W/m2
14:09 43.5 °F 41.7 °F 29.71 in ESE 2.6 mph 7 mph 93% 0.00 in 65 W/m2
14:14 43.7 °F 41.7 °F 29.71 in East 1.5 mph 7 mph 93% 0.00 in 74 W/m2
14:19 43.7 °F 41.7 °F 29.71 in SE 1.6 mph 6 mph 93% 0.00 in 81 W/m2
14:24 43.7 °F 41.7 °F 29.71 in SSE 1.6 mph 5 mph 93% 0.00 in 74 W/m2
14:29 43.7 °F 41.7 °F 29.71 in SE 2.1 mph 5 mph 93% 0.00 in 65 W/m2
14:34 43.9 °F 41.9 °F 29.71 in ESE 2 mph 5 mph 93% 0.00 in 70 W/m2
14:39 43.9 °F 41.9 °F 29.71 in ESE 4 mph 8 mph 93% 0.00 in 70 W/m2
14:44 43.9 °F 41.9 °F 29.71 in SE 2.2 mph 8 mph 93% 0.00 in 51 W/m2
14:49 43.9 °F 41.9 °F 29.71 in ESE 2.3 mph 6 mph 93% 0.00 in 39 W/m2
14:54 43.7 °F 41.7 °F 29.71 in SE 3.1 mph 9 mph 93% 0.00 in 32 W/m2
14:59 43.7 °F 41.7 °F 29.71 in ESE 1.7 mph 5 mph 93% 0.00 in 25 W/m2
15:04 43.7 °F 41.6 °F 29.71 in SE 2.9 mph 5 mph 92.6% 0.00 in 21 W/m2
15:09 43.7 °F 41.5 °F 29.71 in ESE 4.3 mph 7 mph 92% 0.00 in 18 W/m2
15:14 43.6 °F 41.4 °F 29.71 in ESE 1.7 mph 7 mph 92% 0.00 in 16 W/m2
15:19 43.6 °F 41.5 °F 29.71 in SE 3.3 mph 8 mph 92% 0.00 in 14 W/m2
15:24 43.5 °F 41.4 °F 29.71 in SE 2.5 mph 9 mph 92% 0.00 in 14 W/m2
15:29 43.5 °F 41.6 °F 29.71 in ESE 3.2 mph 8 mph 92.6% 0.00 in 16 W/m2
15:34 43.3 °F 41.5 °F 29.71 in ESE 3.6 mph 9 mph 93% 0.00 in 16 W/m2
15:39 43.3 °F 41.5 °F 29.71 in ESE 2.6 mph 6 mph 93% 0.00 in 16 W/m2
15:44 43.4 °F 41.6 °F 29.72 in ESE 2 mph 6 mph 93% 0.00 in 12 W/m2
15:49 43.5 °F 41.7 °F 29.72 in SE 1.4 mph 6 mph 93% 0.00 in 11 W/m2
15:54 43.5 °F 41.7 °F 29.72 in ESE 2.1 mph 6 mph 93% 0.00 in 7 W/m2
15:59 43.5 °F 41.7 °F 29.72 in East 0.5 mph 5 mph 93% 0.00 in 7 W/m2
16:04 43.5 °F 41.7 °F 29.72 in East 1.7 mph 5 mph 93% 0.00 in 7 W/m2
16:09 43.5 °F 41.7 °F 29.72 in East 1.6 mph 5 mph 93% 0.00 in 5 W/m2
16:14 43.5 °F 41.7 °F 29.72 in ESE 1.9 mph 5 mph 93% 0.00 in 7 W/m2
16:19 43.5 °F 41.7 °F 29.72 in ESE 0.5 mph 5 mph 93% 0.00 in 7 W/m2
16:24 43.5 °F 41.7 °F 29.72 in ESE 1.3 mph 5 mph 93% 0.00 in 5 W/m2
16:29 43.3 °F 41.5 °F 29.72 in SE 2.5 mph 7 mph 93% 0.00 in 5 W/m2
16:34 43.3 °F 41.5 °F 29.72 in ESE 1 mph 7 mph 93% 0.00 in 0 W/m2
16:39 43.3 °F 41.5 °F 29.72 in ESE 1.9 mph 5 mph 93% 0.00 in 0 W/m2
16:44 43.3 °F 41.5 °F 29.73 in ESE 2.5 mph 6 mph 93% 0.00 in 0 W/m2
16:49 43.2 °F 41.4 °F 29.73 in ESE 1.5 mph 5 mph 93% 0.00 in 0 W/m2
16:54 43.2 °F 41.4 °F 29.73 in East 1.1 mph 4 mph 93% 0.00 in 0 W/m2
16:59 43.2 °F 41.4 °F 29.73 in East 2.2 mph 5 mph 93% 0.00 in 0 W/m2
17:04 43.2 °F 41.4 °F 29.73 in East 1.1 mph 4 mph 93% 0.01 in 0 W/m2
17:09 43.2 °F 41.4 °F 29.74 in ESE 2.4 mph 6 mph 93% 0.01 in 0 W/m2
17:14 43.1 °F 41.3 °F 29.74 in ESE 1.7 mph 4 mph 93% 0.01 in 0 W/m2
17:19 43 °F 41.2 °F 29.74 in SE 1.7 mph 5 mph 93% 0.01 in 0 W/m2
17:24 42.9 °F 41.1 °F 29.74 in SE 2 mph 5 mph 93% 0.01 in 0 W/m2
17:29 42.8 °F 41.1 °F 29.74 in SE 1.8 mph 5 mph 93.3% 0.01 in 0 W/m2
17:34 42.8 °F 41 °F 29.74 in ESE 1.4 mph 4 mph 93% 0.01 in 0 W/m2
17:39 42.8 °F 41 °F 29.74 in ESE 2 mph 4 mph 93% 0.01 in 0 W/m2
17:44 42.8 °F 41.1 °F 29.75 in ESE 1.9 mph 4 mph 93.7% 0.01 in 0 W/m2
17:49 42.7 °F 41.1 °F 29.75 in ESE 3 mph 7 mph 94% 0.01 in 0 W/m2
17:54 42.6 °F 41 °F 29.75 in ESE 1.4 mph 4 mph 94% 0.01 in 0 W/m2
17:59 42.6 °F 41 °F 29.75 in ESE 0.9 mph 4 mph 94% 0.02 in 0 W/m2
18:04 42.6 °F 41 °F 29.75 in ESE 0.7 mph 3 mph 94% 0.02 in 0 W/m2
18:09 42.6 °F 41 °F 29.75 in ESE 0.4 mph 2 mph 94% 0.01 in 0 W/m2
18:14 42.6 °F 41 °F 29.75 in ESE 2.1 mph 5 mph 94% 0.01 in 0 W/m2
18:19 42.6 °F 41 °F 29.75 in ESE 0.7 mph 4 mph 94% 0.01 in 0 W/m2
18:24 42.6 °F 41 °F 29.75 in East 1.3 mph 3 mph 94% 0.01 in 0 W/m2
18:29 42.6 °F 41 °F 29.75 in East 1.4 mph 3 mph 94% 0.01 in 0 W/m2
18:34 42.6 °F 41 °F 29.75 in East 1.3 mph 5 mph 94% 0.01 in 0 W/m2
18:39 42.6 °F 41 °F 29.76 in East 1 mph 5 mph 94% 0.01 in 0 W/m2
18:44 42.6 °F 41 °F 29.76 in East 1.5 mph 6 mph 94% 0.01 in 0 W/m2
18:49 42.6 °F 41 °F 29.76 in East 0.3 mph 2 mph 94% 0.01 in 0 W/m2
18:54 42.6 °F 41 °F 29.76 in East 1.4 mph 5 mph 94% 0.01 in 0 W/m2
18:59 42.6 °F 41 °F 29.76 in East 0.2 mph 3 mph 94% 0.00 in 0 W/m2
19:04 42.6 °F 41 °F 29.76 in East 1.1 mph 3 mph 94% 0.00 in 0 W/m2
19:09 42.6 °F 41 °F 29.76 in East 0.8 mph 3 mph 94% 0.00 in 0 W/m2
19:14 42.6 °F 41 °F 29.76 in East 0.2 mph 2 mph 94% 0.00 in 0 W/m2
19:19 42.6 °F 41 °F 29.77 in East 0.9 mph 3 mph 94% 0.00 in 0 W/m2
19:24 42.6 °F 41 °F 29.77 in East 0.7 mph 3 mph 94% 0.00 in 0 W/m2
19:29 42.5 °F 40.9 °F 29.77 in ESE 0.9 mph 5 mph 94% 0.00 in 0 W/m2
19:34 42.4 °F 40.8 °F 29.77 in ESE 0.7 mph 4 mph 94% 0.00 in 0 W/m2
19:39 42.4 °F 40.7 °F 29.77 in SE 1.3 mph 4 mph 94% 0.00 in 0 W/m2
19:44 42.3 °F 40.6 °F 29.77 in SE 0.4 mph 3 mph 94% 0.00 in 0 W/m2
19:49 42.3 °F 40.6 °F 29.77 in SE 1.5 mph 4 mph 94% 0.00 in 0 W/m2
19:54 42.3 °F 40.6 °F 29.78 in SE 0.4 mph 4 mph 94% 0.00 in 0 W/m2
19:59 42.3 °F 40.6 °F 29.78 in ESE 2.2 mph 5 mph 94% 0.00 in 0 W/m2
20:04 42.3 °F 40.6 °F 29.78 in ESE 0.8 mph 3 mph 94% 0.00 in 0 W/m2
20:09 42.3 °F 40.6 °F 29.78 in East 2 mph 5 mph 94% 0.00 in 0 W/m2
20:14 42.2 °F 40.6 °F 29.78 in ESE 4.2 mph 7 mph 94% 0.00 in 0 W/m2
20:19 42 °F 40.4 °F 29.78 in ESE 3.9 mph 8 mph 94% 0.00 in 0 W/m2
20:24 41.9 °F 40.3 °F 29.78 in ESE 2.3 mph 6 mph 94% 0.00 in 0 W/m2
20:29 41.9 °F 40.3 °F 29.79 in ESE 1.6 mph 6 mph 94% 0.00 in 0 W/m2
20:34 41.9 °F 40.3 °F 29.79 in ESE 2.5 mph 6 mph 94% 0.00 in 0 W/m2
20:39 41.9 °F 40.3 °F 29.79 in ESE 2.1 mph 6 mph 94% 0.00 in 0 W/m2
20:44 41.9 °F 40.3 °F 29.79 in ESE 2 mph 5 mph 94% 0.00 in 0 W/m2
20:49 41.9 °F 40.3 °F 29.79 in ESE 3.1 mph 6 mph 94% 0.00 in 0 W/m2
20:54 41.9 °F 40.3 °F 29.79 in ESE 1.5 mph 5 mph 94% 0.00 in 0 W/m2
20:59 41.9 °F 40.3 °F 29.79 in ESE 2.8 mph 7 mph 94% 0.00 in 0 W/m2
21:04 41.8 °F 40.2 °F 29.80 in SE 2.4 mph 7 mph 94% 0.00 in 0 W/m2
21:09 41.7 °F 40.1 °F 29.80 in ESE 3.6 mph 8 mph 94% 0.00 in 0 W/m2
21:14 41.7 °F 40.1 °F 29.80 in ESE 4.4 mph 9 mph 94% 0.00 in 0 W/m2
21:19 41.7 °F 40.1 °F 29.80 in ESE 3.8 mph 9 mph 94% 0.00 in 0 W/m2
21:24 41.7 °F 40.1 °F 29.80 in SE 3.9 mph 9 mph 94% 0.00 in 0 W/m2
21:29 41.7 °F 40.1 °F 29.80 in SE 1.7 mph 9 mph 94% 0.00 in 0 W/m2
21:34 41.7 °F 40.1 °F 29.80 in SE 3.8 mph 8 mph 94% 0.00 in 0 W/m2
21:39 41.7 °F 40.1 °F 29.80 in ESE 3.3 mph 8 mph 94% 0.00 in 0 W/m2
21:44 41.6 °F 40 °F 29.81 in ESE 1.8 mph 8 mph 94% 0.00 in 0 W/m2
21:49 41.7 °F 40.1 °F 29.81 in ESE 1.9 mph 6 mph 94% 0.00 in 0 W/m2
21:54 41.7 °F 40.1 °F 29.81 in ESE 1.5 mph 6 mph 94% 0.00 in 0 W/m2
21:59 41.7 °F 40.1 °F 29.82 in ESE 3.1 mph 7 mph 94% 0.00 in 0 W/m2
22:04 41.7 °F 40.1 °F 29.82 in ESE 1.9 mph 6 mph 94% 0.00 in 0 W/m2
22:09 41.7 °F 40.1 °F 29.82 in East 3.9 mph 8 mph 94% 0.00 in 0 W/m2
22:14 41.6 °F 40 °F 29.82 in ESE 2.2 mph 8 mph 94% 0.00 in 0 W/m2
22:19 41.5 °F 39.9 °F 29.82 in ESE 1.8 mph 5 mph 94% 0.00 in 0 W/m2
22:24 41.5 °F 39.9 °F 29.82 in ESE 3.6 mph 9 mph 94% 0.00 in 0 W/m2
22:29 41.5 °F 39.9 °F 29.83 in SE 1.8 mph 7 mph 94% 0.00 in 0 W/m2
22:34 41.5 °F 39.8 °F 29.83 in ESE 4 mph 8 mph 94% 0.00 in 0 W/m2
22:39 41.4 °F 39.7 °F 29.83 in SE 4.8 mph 10 mph 94% 0.00 in 0 W/m2
22:44 41.2 °F 39.6 °F 29.83 in SE 2.3 mph 10 mph 94% 0.00 in 0 W/m2
22:49 41.3 °F 39.6 °F 29.83 in SE 2 mph 5 mph 94% 0.00 in 0 W/m2
22:54 41.3 °F 39.6 °F 29.83 in SE 3.7 mph 8 mph 94% 0.00 in 0 W/m2
22:59 41.1 °F 39.5 °F 29.83 in SE 2.6 mph 6 mph 94% 0.00 in 0 W/m2
23:04 41 °F 39.4 °F 29.84 in SE 3 mph 6 mph 94% 0.00 in 0 W/m2
23:09 41.1 °F 39.5 °F 29.84 in ESE 2.3 mph 5 mph 94% 0.00 in 0 W/m2
23:14 41.1 °F 39.5 °F 29.84 in ESE 1.9 mph 6 mph 94% 0.00 in 0 W/m2
23:19 41 °F 39.4 °F 29.84 in SE 3.3 mph 7 mph 94% 0.00 in 0 W/m2
23:24 40.8 °F 39.2 °F 29.84 in SE 1.8 mph 7 mph 94% 0.00 in 0 W/m2
23:29 40.8 °F 39.2 °F 29.85 in SE 0.5 mph 5 mph 94% 0.00 in 0 W/m2
23:34 41 °F 39.4 °F 29.85 in ESE 2.5 mph 7 mph 94% 0.00 in 0 W/m2
23:39 40.9 °F 39.3 °F 29.85 in SE 1.1 mph 7 mph 94% 0.00 in 0 W/m2
23:44 40.8 °F 39.2 °F 29.85 in ESE 1.8 mph 5 mph 94% 0.00 in 0 W/m2
23:49 40.8 °F 39.2 °F 29.85 in ESE 2.3 mph 5 mph 93.8% 0.00 in 0 W/m2
23:54 40.8 °F 39 °F 29.85 in SE 1.4 mph 4 mph 93% 0.00 in 0 W/m2
23:59 40.8 °F 39 °F 29.85 in SE 0.8 mph 4 mph 93% 0.00 in 0 W/m2
Bath Spa Weather
Compliments of Weather Underground - 2 mb